createdAt,value
2022-12-08T00:04:16.548Z,4.40
2022-12-08T00:09:39.037Z,3.40
2022-12-08T00:14:44.990Z,4.40
2022-12-08T00:19:47.849Z,3.50
2022-12-08T00:24:50.656Z,3.80
2022-12-08T00:29:53.453Z,3.80
2022-12-08T00:34:56.149Z,4.90
2022-12-08T00:39:58.885Z,4.50
2022-12-08T00:45:01.644Z,5.10
2022-12-08T00:50:05.651Z,4.40
2022-12-08T00:55:09.241Z,4.10
2022-12-08T01:00:12.977Z,4.00
2022-12-08T01:05:15.927Z,4.40
2022-12-08T01:10:18.789Z,4.40
2022-12-08T01:15:21.635Z,5.10
2022-12-08T01:20:24.932Z,4.10
2022-12-08T01:25:27.710Z,4.80
2022-12-08T01:30:30.768Z,4.20
2022-12-08T01:35:34.316Z,4.40
2022-12-08T01:40:37.181Z,4.10
2022-12-08T01:45:40.129Z,4.20
2022-12-08T01:50:43.573Z,4.00
2022-12-08T01:55:58.276Z,3.90
2022-12-08T02:08:16.691Z,4.40
2022-12-08T02:13:21.745Z,3.60
2022-12-08T02:18:32.495Z,3.70
2022-12-08T02:24:18.614Z,4.60
2022-12-08T02:29:39.956Z,4.30
2022-12-08T02:34:53.812Z,3.50
2022-12-08T02:40:22.625Z,4.30
2022-12-08T02:45:31.924Z,3.60
2022-12-08T02:50:34.883Z,3.30
2022-12-08T02:55:48.435Z,2.90
2022-12-08T03:01:00.204Z,4.70
2022-12-08T03:06:12.574Z,3.50
2022-12-08T03:11:42.613Z,4.80
2022-12-08T03:16:49.615Z,3.90
2022-12-08T03:22:03.176Z,3.70
2022-12-08T03:27:16.924Z,3.70
2022-12-08T03:32:41.744Z,3.70
2022-12-08T03:37:44.750Z,4.00
2022-12-08T03:42:47.664Z,4.80
2022-12-08T03:47:51.118Z,4.00
2022-12-08T03:52:54.078Z,5.90
2022-12-08T03:57:56.983Z,8.00
2022-12-08T04:03:00.181Z,4.80
2022-12-08T04:08:03.377Z,4.90
2022-12-08T04:13:06.512Z,5.80
2022-12-08T04:18:09.928Z,4.40
2022-12-08T04:23:13.249Z,5.40
2022-12-08T04:28:16.762Z,4.50
2022-12-08T04:33:19.668Z,5.70
2022-12-08T04:38:23.560Z,4.30
2022-12-08T04:43:27.157Z,4.80
2022-12-08T04:48:30.118Z,4.60
2022-12-08T04:53:33.231Z,5.40
2022-12-08T04:58:36.131Z,4.10
2022-12-08T05:03:39.139Z,3.80
2022-12-08T05:08:43.579Z,4.10
2022-12-08T05:13:46.479Z,5.50
2022-12-08T05:18:49.389Z,3.70
2022-12-08T05:23:52.289Z,5.90
2022-12-08T05:28:55.297Z,4.60
2022-12-08T05:34:02.800Z,4.60
2022-12-08T05:39:06.226Z,4.40
2022-12-08T05:44:09.434Z,4.60
2022-12-08T05:49:12.338Z,3.50
2022-12-08T05:54:15.448Z,3.90
2022-12-08T05:59:18.352Z,4.60
2022-12-08T06:04:21.155Z,3.30
2022-12-08T06:09:24.160Z,4.20
2022-12-08T06:14:27.066Z,3.80
2022-12-08T06:19:30.073Z,4.80
2022-12-08T06:24:33.489Z,3.40
2022-12-08T06:29:36.390Z,4.20
2022-12-08T06:34:39.400Z,4.50
2022-12-08T06:39:42.301Z,3.40
2022-12-08T06:44:45.413Z,4.60
2022-12-08T06:49:49.181Z,2.80
2022-12-08T06:54:52.150Z,3.60
2022-12-08T06:59:55.147Z,3.40
2022-12-08T07:04:58.049Z,2.60
2022-12-08T07:10:00.963Z,2.40
2022-12-08T07:15:04.268Z,2.70
2022-12-08T07:20:08.911Z,2.70
2022-12-08T07:25:11.821Z,1.90
2022-12-08T07:30:15.188Z,2.80
2022-12-08T07:35:18.341Z,2.40
2022-12-08T07:40:21.271Z,2.70
2022-12-08T07:45:29.892Z,3.40
2022-12-08T07:50:34.736Z,3.40
2022-12-08T07:55:42.126Z,3.50
2022-12-08T08:00:45.789Z,2.80
2022-12-08T08:05:50.307Z,3.40
2022-12-08T08:10:53.160Z,2.90
2022-12-08T08:16:06.565Z,2.60
2022-12-08T08:21:43.197Z,3.90
2022-12-08T08:26:32.852Z,3.20
2022-12-08T08:31:36.330Z,3.80
2022-12-08T08:36:40.063Z,3.40
2022-12-08T08:41:43.099Z,3.70
2022-12-08T08:46:46.046Z,3.30
2022-12-08T08:51:49.127Z,3.60
2022-12-08T08:56:52.836Z,3.90
2022-12-08T09:01:56.928Z,3.20
2022-12-08T09:06:59.975Z,3.10
2022-12-08T09:12:02.890Z,3.40
2022-12-08T09:17:07.082Z,3.70
2022-12-08T09:22:10.021Z,3.90
2022-12-08T09:27:13.026Z,4.60
2022-12-08T09:32:16.037Z,4.70
2022-12-08T09:37:18.936Z,5.00
2022-12-08T09:42:35.976Z,4.80
2022-12-08T09:47:57.313Z,4.90
2022-12-08T09:53:02.772Z,5.30
2022-12-08T09:58:17.458Z,5.90
2022-12-08T10:03:24.406Z,5.40
2022-12-08T10:08:43.516Z,5.30
2022-12-08T10:14:01.805Z,6.10
2022-12-08T10:19:15.879Z,5.90
2022-12-08T10:24:39.149Z,5.20
2022-12-08T10:29:42.061Z,4.80
2022-12-08T10:35:12.403Z,5.70
2022-12-08T10:40:18.853Z,6.60
2022-12-08T10:45:38.595Z,5.00
2022-12-08T10:50:47.183Z,5.50
2022-12-08T10:56:06.823Z,6.50
2022-12-08T11:01:15.539Z,6.10
2022-12-08T11:06:30.709Z,7.60
2022-12-08T11:11:59.982Z,5.40
2022-12-08T11:17:07.393Z,6.00
2022-12-08T11:22:38.249Z,7.10
2022-12-08T11:27:44.873Z,7.30
2022-12-08T11:32:51.331Z,7.60
2022-12-08T11:38:13.420Z,7.90
2022-12-08T11:43:27.242Z,6.20
2022-12-08T11:48:45.014Z,9.00
2022-12-08T11:54:12.576Z,7.40
2022-12-08T11:59:31.557Z,8.40
2022-12-08T12:05:10.209Z,7.60
2022-12-08T12:10:39.229Z,8.60
2022-12-08T12:21:13.185Z,5.80
2022-12-08T12:26:28.685Z,5.30
2022-12-08T12:31:39.482Z,6.20
2022-12-08T12:37:17.448Z,7.80
2022-12-08T12:42:55.479Z,6.60
2022-12-08T12:48:01.618Z,7.90
2022-12-08T12:53:18.442Z,8.30
2022-12-08T12:58:30.463Z,7.20
2022-12-08T13:03:33.825Z,7.90
2022-12-08T13:08:36.989Z,9.50
2022-12-08T13:13:57.729Z,8.60
2022-12-08T13:19:04.917Z,4.80
2022-12-08T13:24:10.784Z,11.70
2022-12-08T13:29:17.479Z,8.50
2022-12-08T13:34:45.788Z,6.00
2022-12-08T13:39:53.821Z,11.30
2022-12-08T13:45:27.841Z,11.50
2022-12-08T13:52:33.091Z,5.70
2022-12-08T14:01:43.192Z,8.50
2022-12-08T14:06:50.002Z,10.60
2022-12-08T14:12:03.793Z,12.60
2022-12-08T14:17:12.097Z,11.00
2022-12-08T14:22:18.799Z,8.50
2022-12-08T14:27:24.460Z,16.90
2022-12-08T14:32:33.514Z,8.50
2022-12-08T14:37:41.147Z,10.40
2022-12-08T14:42:46.772Z,16.50
2022-12-08T14:47:49.692Z,14.70
2022-12-08T14:52:53.520Z,11.60
2022-12-08T14:57:57.245Z,14.60
2022-12-08T15:03:07.052Z,11.60
2022-12-08T15:08:13.149Z,10.40
2022-12-08T15:13:16.608Z,14.40
2022-12-08T15:18:21.763Z,17.30
2022-12-08T15:23:54.980Z,13.40
2022-12-08T15:28:57.883Z,10.60
2022-12-08T15:34:01.197Z,13.70
2022-12-08T15:39:06.869Z,14.60
2022-12-08T15:44:09.771Z,15.70
2022-12-08T15:49:24.539Z,15.50
2022-12-08T15:54:27.456Z,17.60
2022-12-08T15:59:32.002Z,14.70
2022-12-08T16:05:25.329Z,15.20
2022-12-08T16:09:58.291Z,14.30
2022-12-08T16:15:53.134Z,15.90
2022-12-08T16:20:37.776Z,11.50
2022-12-08T16:26:17.072Z,12.30
2022-12-08T16:31:16.683Z,18.00
2022-12-08T16:36:21.930Z,10.70
2022-12-08T16:41:43.576Z,14.00
2022-12-08T16:46:46.593Z,14.90
2022-12-08T16:51:49.487Z,17.40
2022-12-08T16:56:52.390Z,16.10
2022-12-08T17:01:56.208Z,15.90
2022-12-08T17:07:00.458Z,15.80
2022-12-08T17:12:04.392Z,12.60
2022-12-08T17:17:07.691Z,17.90
2022-12-08T17:22:10.596Z,14.80
2022-12-08T17:27:13.501Z,12.10
2022-12-08T17:32:17.243Z,17.10
2022-12-08T17:37:20.537Z,11.50
2022-12-08T17:42:26.206Z,16.30
2022-12-08T17:47:29.254Z,17.60
2022-12-08T17:52:32.099Z,14.90
2022-12-08T17:57:35.027Z,18.00
2022-12-08T18:02:38.172Z,15.00
2022-12-08T18:07:41.278Z,13.50
2022-12-08T18:12:45.913Z,13.50
2022-12-08T18:17:48.788Z,10.10
2022-12-08T18:22:51.691Z,13.40
2022-12-08T18:27:54.599Z,13.40
2022-12-08T18:32:57.695Z,13.10
2022-12-08T18:38:00.814Z,15.00
2022-12-08T18:43:03.924Z,12.30
2022-12-08T18:48:07.954Z,16.30
2022-12-08T18:53:10.875Z,13.30
2022-12-08T18:58:14.682Z,14.10
2022-12-08T19:03:17.587Z,13.10
2022-12-08T19:08:21.063Z,9.50
2022-12-08T19:13:25.958Z,13.90
2022-12-08T19:18:28.860Z,10.30
2022-12-08T19:23:32.217Z,13.00
2022-12-08T19:28:35.425Z,8.90
2022-12-08T19:33:38.883Z,13.10
2022-12-08T19:39:01.164Z,13.30
2022-12-08T19:44:22.911Z,10.50
2022-12-08T19:49:25.813Z,11.20
2022-12-08T19:54:28.822Z,8.40
2022-12-08T19:59:31.943Z,9.90
2022-12-08T20:04:35.034Z,10.20
2022-12-08T20:09:37.938Z,13.80
2022-12-08T20:14:45.722Z,12.20
2022-12-08T20:19:49.179Z,11.20
2022-12-08T20:24:57.369Z,9.20
2022-12-08T20:30:02.462Z,12.10
2022-12-08T20:35:05.763Z,11.40
2022-12-08T20:40:09.736Z,11.50
2022-12-08T20:45:12.721Z,11.30
2022-12-08T20:50:15.705Z,12.90
2022-12-08T20:55:18.603Z,7.00
2022-12-08T21:00:23.516Z,13.00
2022-12-08T21:05:26.579Z,9.40
2022-12-08T21:10:29.508Z,9.80
2022-12-08T21:15:32.385Z,12.40
2022-12-08T21:20:35.518Z,9.20
2022-12-08T21:25:46.363Z,12.90
2022-12-08T21:30:49.334Z,11.50
2022-12-08T21:36:02.255Z,14.60
2022-12-08T21:41:08.223Z,15.60
2022-12-08T21:46:17.152Z,12.40
2022-12-08T21:51:20.278Z,6.00
2022-12-08T21:56:23.325Z,8.30
2022-12-08T22:01:26.618Z,15.30
2022-12-08T22:06:30.746Z,17.00
2022-12-08T22:11:33.746Z,16.90
2022-12-08T22:16:36.794Z,14.40
2022-12-08T22:21:40.326Z,16.80
2022-12-08T22:26:43.884Z,15.60
2022-12-08T22:31:47.183Z,18.60
2022-12-08T22:36:50.293Z,14.90
2022-12-08T22:41:53.198Z,13.30
2022-12-08T22:46:56.786Z,11.70
2022-12-08T22:51:59.721Z,15.60
2022-12-08T22:57:02.855Z,10.90
2022-12-08T23:02:05.935Z,17.20
2022-12-08T23:07:08.938Z,18.00
2022-12-08T23:12:11.831Z,15.80
2022-12-08T23:17:15.133Z,19.50
2022-12-08T23:22:18.200Z,15.90
2022-12-08T23:27:21.719Z,18.40
2022-12-08T23:32:25.104Z,20.50
2022-12-08T23:37:29.322Z,18.50
2022-12-08T23:42:32.244Z,18.20
2022-12-08T23:47:35.913Z,16.60
2022-12-08T23:52:39.981Z,15.40
2022-12-08T23:57:43.350Z,17.70
